Weather at Lake Fremont Seaplane Base

Public forecast

Using degrees Fahrenheit for public forecast. Weather courtesy of forecast.io.

Closest aviation weather report (METAR) to Lake Fremont Seaplane Base

Closest report is Princeton Municipal Airport, 6.3 nm (11.6 km) NNW.

2024/07/25 09:55 (retrieved 14 minutes ago)

KPNM 250955Z AUTO 00000KT 1SM BR CLR 12/11 A3024 RMK AO2

Closest aviation forecast (TAF) to Lake Fremont Seaplane Base

Closest forecast is Saint Cloud Regional Airport, 21.0 nm (38.8 km) WNW.

2024/07/25 06:22 (retrieved 4 hours ago)

TAF KSTC 250520Z 2506/2606 11003KT P6SM FEW200 FM251400 15008KT P6SM SKC FM260000 14005KT P6SM SKC